Hlavní strana
METAR-TAF:

METAR-TAF

Letiště :

Saskatoon, Saskatchewan, Kanada

zeměpisná šířka: 52-10N, zeměpisná délka: 106-41W, výška: 501 m

Aktuální stav počasí

Zpráva byla vytvořena před 30 minutami, v 22:00 UTC
Západní vítr 14 kt s nárazy do 19 kt
Teplota 21°C
Vlhkost vzduchu 20%
Tlak 1016 hPa
Viditelnost: 24.1 km
Skoro jasno ve výšce 30000 ft

METAR: CYXE 172200Z 26014G19KT 15SM FEW300 21/M03 A3000 RMK CI1 SLP173 DENSITY ALT 2700FT

Čas: 16:30 (22:30 UTC)

Předpověď počasí

Zpráva byla vytvořena před 4 hodinami a 52 minutami, v 17:38 UTC
Předpověď platná od 17 v 18 UTC do 18 v 18 UTC
Jihozápadní vítr 15 kt
Viditelnost: 10 km
Skoro jasno ve výšce 30000 ft
Změna
od 18 v 00 UTC do 18 v 02 UTC
Západojihozápadní vítr 10 kt

TAF: CYXE 171738Z 1718/1818 22015KT P6SM FEW300 BECMG 1800/1802 24010KT RMK NXT FCST BY 180000Z

Stav a předpovědi počasí z více než 4 000 letišť (zprávy METAR a TAF).

Červené a žluté tečky na mapě představují dostupné meteorologické stanice.

Když kurzor umístíte na tečku, zobrazí se název stanice.

Pak kliknutím zobrazíte stav a předpověď počasí.

Chcete-li změnit mapu, kliknutím na zelené tlačítko se znaménkem +mapu přiblížíte, kliknutím na zelené tlačítko se znaménkem – mapu oddálíte a kliknutím na zelené šipky přejdete na sousední mapy.


METAR-TAF: